createdAt,value
2022-07-30T00:00:24.681Z,9.80
2022-07-30T00:01:15.223Z,9.39
2022-07-30T00:02:15.119Z,9.50
2022-07-30T00:03:15.181Z,10.39
2022-07-30T00:04:15.094Z,10.10
2022-07-30T00:05:15.083Z,10.10
2022-07-30T00:06:15.068Z,9.30
2022-07-30T00:07:15.057Z,9.60
2022-07-30T00:08:15.041Z,10.30
2022-07-30T00:09:15.030Z,9.89
2022-07-30T00:10:15.016Z,9.69
2022-07-30T00:11:15.005Z,9.89
2022-07-30T00:12:14.990Z,9.60
2022-07-30T00:13:14.978Z,10.00
2022-07-30T00:14:14.963Z,9.89
2022-07-30T00:15:14.952Z,10.10
2022-07-30T00:16:14.960Z,9.50
2022-07-30T00:17:14.926Z,10.00
2022-07-30T00:18:14.915Z,10.39
2022-07-30T00:19:14.902Z,9.80
2022-07-30T00:20:14.886Z,10.00
2022-07-30T00:21:20.205Z,10.10
2022-07-30T00:22:14.859Z,9.89
2022-07-30T00:23:14.847Z,9.89
2022-07-30T00:24:14.833Z,10.30
2022-07-30T00:25:14.820Z,11.39
2022-07-30T00:26:14.806Z,11.39
2022-07-30T00:27:14.795Z,12.50
2022-07-30T00:28:14.781Z,12.39
2022-07-30T00:29:14.770Z,11.10
2022-07-30T00:30:14.759Z,12.19
2022-07-30T00:31:14.809Z,11.00
2022-07-30T00:32:14.730Z,10.89
2022-07-30T00:33:14.717Z,11.00
2022-07-30T00:34:14.703Z,11.30
2022-07-30T00:35:14.690Z,11.19
2022-07-30T00:36:14.676Z,11.60
2022-07-30T00:37:14.663Z,11.19
2022-07-30T00:38:14.649Z,11.60
2022-07-30T00:39:14.639Z,11.30
2022-07-30T00:40:14.624Z,11.30
2022-07-30T00:41:15.615Z,10.89
2022-07-30T00:42:14.596Z,10.80
2022-07-30T00:43:14.589Z,10.80
2022-07-30T00:44:14.569Z,11.00
2022-07-30T00:45:14.558Z,11.00
2022-07-30T00:46:14.590Z,11.00
2022-07-30T00:47:14.533Z,11.10
2022-07-30T00:48:14.517Z,11.19
2022-07-30T00:49:14.556Z,11.30
2022-07-30T00:50:14.492Z,11.69
2022-07-30T00:51:14.480Z,11.00
2022-07-30T00:52:14.465Z,10.89
2022-07-30T00:53:14.454Z,11.39
2022-07-30T00:54:14.439Z,11.30
2022-07-30T00:55:14.430Z,11.80
2022-07-30T00:56:14.423Z,11.10
2022-07-30T00:57:14.402Z,11.00
2022-07-30T00:58:14.387Z,10.00
2022-07-30T00:59:14.375Z,10.19
2022-07-30T01:00:14.363Z,10.50
2022-07-30T01:01:14.414Z,11.19
2022-07-30T01:02:14.375Z,11.30
2022-07-30T01:03:14.322Z,10.19
2022-07-30T01:04:14.308Z,9.60
2022-07-30T01:05:14.295Z,10.10
2022-07-30T01:06:14.639Z,10.19
2022-07-30T01:07:14.271Z,10.00
2022-07-30T01:08:14.255Z,10.39
2022-07-30T01:09:14.242Z,9.50
2022-07-30T01:10:14.230Z,9.39
2022-07-30T01:11:14.218Z,9.00
2022-07-30T01:12:14.202Z,10.10
2022-07-30T01:13:14.191Z,8.69
2022-07-30T01:14:14.176Z,9.80
2022-07-30T01:15:14.165Z,10.10
2022-07-30T01:16:14.247Z,9.69
2022-07-30T01:17:14.139Z,10.00
2022-07-30T01:18:14.124Z,9.80
2022-07-30T01:19:14.115Z,9.80
2022-07-30T01:20:14.096Z,10.00
2022-07-30T01:21:14.085Z,9.80
2022-07-30T01:22:14.070Z,9.60
2022-07-30T01:23:14.061Z,9.80
2022-07-30T01:24:14.044Z,10.00
2022-07-30T01:25:14.046Z,10.39
2022-07-30T01:26:14.016Z,10.30
2022-07-30T01:27:18.015Z,10.50
2022-07-30T01:28:13.992Z,10.69
2022-07-30T01:29:13.993Z,11.00
2022-07-30T01:30:13.972Z,11.19
2022-07-30T01:32:13.943Z,11.10
2022-07-30T01:33:13.926Z,11.30
2022-07-30T01:34:13.910Z,10.39
2022-07-30T01:35:13.899Z,10.80
2022-07-30T01:36:13.884Z,10.19
2022-07-30T01:37:13.874Z,11.19
2022-07-30T01:38:13.859Z,10.69
2022-07-30T01:39:13.847Z,10.19
2022-07-30T01:40:13.830Z,9.69
2022-07-30T01:41:13.820Z,10.39
2022-07-30T01:42:13.804Z,9.89
2022-07-30T01:43:13.796Z,9.69
2022-07-30T01:44:13.779Z,9.50
2022-07-30T01:45:13.766Z,9.50
2022-07-30T01:46:13.902Z,9.30
2022-07-30T01:47:13.739Z,9.60
2022-07-30T01:48:13.724Z,9.19
2022-07-30T01:49:13.778Z,8.39
2022-07-30T01:50:13.732Z,9.19
2022-07-30T01:51:13.690Z,9.69
2022-07-30T01:52:13.673Z,8.60
2022-07-30T01:53:13.663Z,8.30
2022-07-30T01:54:13.647Z,8.89
2022-07-30T01:55:17.248Z,8.89
2022-07-30T01:56:13.620Z,8.39
2022-07-30T01:57:13.611Z,8.00
2022-07-30T01:58:13.597Z,7.80
2022-07-30T01:59:13.581Z,7.40
2022-07-30T02:00:13.579Z,7.80
2022-07-30T02:01:13.660Z,7.19
2022-07-30T02:02:13.538Z,7.50
2022-07-30T02:03:13.606Z,7.09
2022-07-30T02:04:13.515Z,7.00
2022-07-30T02:05:13.500Z,7.30
2022-07-30T02:06:13.496Z,7.30
2022-07-30T02:07:13.479Z,7.19
2022-07-30T02:08:13.459Z,7.50
2022-07-30T02:09:13.451Z,7.59
2022-07-30T02:10:13.447Z,7.59
2022-07-30T02:11:13.422Z,7.59
2022-07-30T02:12:13.406Z,8.39
2022-07-30T02:13:13.395Z,7.19
2022-07-30T02:14:13.380Z,7.50
2022-07-30T02:15:13.368Z,8.39
2022-07-30T02:16:13.371Z,7.90
2022-07-30T02:17:18.690Z,8.80
2022-07-30T02:18:13.327Z,8.19
2022-07-30T02:19:13.984Z,8.30
2022-07-30T02:20:13.384Z,8.39
2022-07-30T02:21:13.342Z,8.69
2022-07-30T02:22:13.273Z,8.30
2022-07-30T02:23:13.263Z,8.60
2022-07-30T02:24:13.247Z,8.69
2022-07-30T02:25:13.239Z,8.60
2022-07-30T02:26:13.222Z,8.80
2022-07-30T02:27:13.209Z,8.19
2022-07-30T02:28:13.195Z,8.00
2022-07-30T02:29:13.184Z,8.50
2022-07-30T02:30:13.170Z,8.00
2022-07-30T02:31:17.633Z,8.30
2022-07-30T02:32:13.143Z,8.00
2022-07-30T02:33:13.133Z,8.30
2022-07-30T02:34:13.118Z,9.19
2022-07-30T02:35:13.106Z,9.19
2022-07-30T02:36:13.092Z,9.39
2022-07-30T02:37:13.083Z,11.60
2022-07-30T02:38:13.069Z,11.00
2022-07-30T02:39:13.056Z,11.89
2022-07-30T02:40:13.042Z,10.60
2022-07-30T02:41:13.030Z,11.19
2022-07-30T02:42:13.016Z,11.10
2022-07-30T02:43:13.012Z,13.19
2022-07-30T02:44:12.991Z,10.60
2022-07-30T02:45:12.982Z,11.69
2022-07-30T02:46:13.040Z,14.60
2022-07-30T02:47:13.006Z,17.79
2022-07-30T02:48:12.940Z,18.70
2022-07-30T02:49:12.972Z,23.20
2022-07-30T02:50:12.915Z,20.50
2022-07-30T02:51:12.905Z,24.39
2022-07-30T02:52:12.890Z,22.39
2022-07-30T02:53:12.879Z,22.39
2022-07-30T02:54:12.864Z,26.50
2022-07-30T02:55:12.853Z,28.29
2022-07-30T02:56:12.838Z,27.29
2022-07-30T02:57:12.829Z,28.00
2022-07-30T02:58:12.813Z,26.10
2022-07-30T02:59:12.803Z,20.70
2022-07-30T03:00:12.788Z,23.89
2022-07-30T03:01:12.839Z,19.20
2022-07-30T03:02:12.834Z,21.70
2022-07-30T03:03:12.749Z,18.79
2022-07-30T03:04:12.735Z,20.60
2022-07-30T03:05:12.729Z,23.60
2022-07-30T03:06:12.710Z,29.50
2022-07-30T03:07:12.844Z,30.00
2022-07-30T03:08:12.684Z,31.29
2022-07-30T03:09:12.672Z,32.09
2022-07-30T03:10:12.660Z,31.60
2022-07-30T03:11:12.647Z,29.00
2022-07-30T03:12:12.633Z,22.20
2022-07-30T03:13:12.623Z,26.50
2022-07-30T03:14:12.607Z,28.70
2022-07-30T03:15:12.596Z,33.59
2022-07-30T03:16:12.603Z,35.90
2022-07-30T03:17:12.569Z,40.00
2022-07-30T03:18:12.555Z,40.59
2022-07-30T03:19:12.542Z,26.70
2022-07-30T03:20:12.528Z,23.70
2022-07-30T03:21:12.519Z,28.29
2022-07-30T03:22:12.503Z,32.90
2022-07-30T03:23:12.490Z,40.29
2022-07-30T03:24:12.476Z,41.00
2022-07-30T03:25:12.464Z,47.20
2022-07-30T03:26:12.453Z,47.79
2022-07-30T03:27:12.437Z,49.70
2022-07-30T03:28:12.426Z,50.79
2022-07-30T03:29:12.411Z,49.29
2022-07-30T03:30:12.400Z,52.90
2022-07-30T03:31:12.449Z,53.70
2022-07-30T03:32:13.656Z,49.70
2022-07-30T03:33:12.359Z,52.00
2022-07-30T03:34:12.805Z,46.79
2022-07-30T03:35:17.141Z,45.70
2022-07-30T03:36:12.322Z,42.90
2022-07-30T03:37:12.307Z,43.00
2022-07-30T03:38:12.297Z,43.00
2022-07-30T03:39:12.282Z,43.79
2022-07-30T03:40:12.271Z,40.59
2022-07-30T03:41:12.256Z,39.70
2022-07-30T03:42:12.243Z,39.09
2022-07-30T03:43:32.113Z,35.00
2022-07-30T03:44:12.219Z,37.90
2022-07-30T03:45:12.207Z,36.79
2022-07-30T03:46:12.235Z,34.00
2022-07-30T03:47:12.178Z,37.79
2022-07-30T03:48:12.167Z,36.50
2022-07-30T03:49:12.245Z,34.70
2022-07-30T03:50:12.143Z,41.00
2022-07-30T03:51:12.125Z,36.79
2022-07-30T03:52:12.115Z,37.29
2022-07-30T03:53:12.101Z,36.50
2022-07-30T03:54:13.766Z,33.20
2022-07-30T03:55:12.075Z,31.79
2022-07-30T03:56:12.065Z,33.20
2022-07-30T03:57:12.051Z,29.89
2022-07-30T03:58:12.037Z,28.29
2022-07-30T03:59:12.021Z,26.79
2022-07-30T04:00:12.014Z,69.19
2022-07-30T04:01:11.999Z,23.20
2022-07-30T04:02:12.062Z,22.70
2022-07-30T04:03:11.971Z,22.70
2022-07-30T04:04:12.069Z,22.79
2022-07-30T04:05:11.945Z,21.89
2022-07-30T04:06:11.934Z,20.70
2022-07-30T04:07:11.920Z,21.50
2022-07-30T04:08:11.908Z,20.10
2022-07-30T04:09:11.895Z,19.89
2022-07-30T04:10:11.883Z,20.89
2022-07-30T04:11:11.868Z,81.50
2022-07-30T04:12:11.857Z,27.70
2022-07-30T04:13:11.842Z,26.50
2022-07-30T04:14:11.831Z,26.20
2022-07-30T04:16:05.575Z,27.20
2022-07-30T04:16:39.049Z,26.20
2022-07-30T04:17:11.875Z,26.10
2022-07-30T04:18:11.781Z,28.79
2022-07-30T04:19:11.770Z,30.79
2022-07-30T04:20:14.257Z,29.00
2022-07-30T04:21:16.034Z,29.10
2022-07-30T04:22:11.731Z,82.80
2022-07-30T04:23:11.716Z,82.59
2022-07-30T04:24:11.705Z,84.80
2022-07-30T04:25:11.691Z,80.80
2022-07-30T04:26:11.680Z,78.90
2022-07-30T04:27:11.664Z,79.30
2022-07-30T04:28:11.654Z,78.30
2022-07-30T04:29:14.240Z,76.69
2022-07-30T04:30:11.635Z,77.30
2022-07-30T04:31:11.675Z,76.40
2022-07-30T04:32:11.602Z,75.19
2022-07-30T04:33:11.588Z,77.30
2022-07-30T04:34:11.577Z,77.69
2022-07-30T04:35:11.563Z,74.09
2022-07-30T04:36:16.168Z,71.90
2022-07-30T04:37:11.543Z,70.09
2022-07-30T04:38:11.527Z,68.40
2022-07-30T04:39:11.513Z,65.09
2022-07-30T04:40:11.501Z,65.69
2022-07-30T04:41:11.491Z,62.20
2022-07-30T04:42:11.476Z,62.59
2022-07-30T04:43:11.462Z,60.70
2022-07-30T04:44:11.452Z,60.00
2022-07-30T04:45:11.718Z,58.00
2022-07-30T04:46:11.481Z,56.79
2022-07-30T04:47:11.412Z,56.29
2022-07-30T04:48:11.402Z,54.90
2022-07-30T04:49:11.463Z,54.79
2022-07-30T04:50:11.375Z,54.20
2022-07-30T04:51:11.360Z,53.29
2022-07-30T04:52:11.349Z,51.29
2022-07-30T04:53:11.339Z,50.50
2022-07-30T04:54:15.456Z,49.40
2022-07-30T04:55:11.310Z,50.09
2022-07-30T04:56:11.296Z,47.79
2022-07-30T04:57:11.281Z,47.90
2022-07-30T04:58:11.269Z,47.90
2022-07-30T04:59:11.254Z,45.50
2022-07-30T05:00:11.244Z,44.29
2022-07-30T05:01:11.278Z,44.90
2022-07-30T05:02:11.283Z,42.50
2022-07-30T05:03:11.202Z,43.50
2022-07-30T05:04:11.196Z,40.59
2022-07-30T05:05:11.279Z,41.90
2022-07-30T05:06:11.166Z,42.20
2022-07-30T05:07:11.151Z,41.09
2022-07-30T05:08:11.140Z,40.79
2022-07-30T05:09:11.125Z,39.90
2022-07-30T05:10:11.114Z,40.59
2022-07-30T05:11:11.099Z,40.29
2022-07-30T05:12:11.088Z,38.90
2022-07-30T05:13:11.074Z,38.59
2022-07-30T05:14:11.062Z,37.90
2022-07-30T05:15:11.048Z,37.90
2022-07-30T05:16:11.058Z,37.29
2022-07-30T05:17:11.023Z,37.90
2022-07-30T05:18:11.009Z,37.29
2022-07-30T05:19:10.996Z,38.79
2022-07-30T05:20:10.988Z,36.29
2022-07-30T05:21:10.969Z,37.79
2022-07-30T05:22:10.979Z,39.09
2022-07-30T05:24:10.930Z,39.50
2022-07-30T05:25:16.158Z,39.40
2022-07-30T05:26:10.904Z,39.79
2022-07-30T05:27:10.890Z,41.29
2022-07-30T05:28:10.879Z,44.00
2022-07-30T05:29:17.272Z,44.70
2022-07-30T05:30:10.853Z,42.50
2022-07-30T05:31:10.893Z,42.09
2022-07-30T05:33:13.321Z,40.29
2022-07-30T05:34:10.802Z,42.90
2022-07-30T05:35:10.789Z,47.59
2022-07-30T05:36:10.777Z,47.09
2022-07-30T05:37:12.403Z,46.50
2022-07-30T05:38:10.752Z,47.40
2022-07-30T05:39:10.735Z,45.50
2022-07-30T05:40:10.724Z,46.29
2022-07-30T05:41:19.120Z,47.20
2022-07-30T05:42:12.060Z,48.20
2022-07-30T05:43:10.683Z,45.40
2022-07-30T05:44:10.670Z,47.40
2022-07-30T05:45:10.658Z,48.59
2022-07-30T05:46:10.675Z,47.29
2022-07-30T05:47:10.632Z,47.59
2022-07-30T05:48:10.621Z,45.59
2022-07-30T05:49:10.706Z,42.79
2022-07-30T05:50:10.594Z,45.79
2022-07-30T05:51:10.581Z,45.90
2022-07-30T05:52:10.569Z,44.90
2022-07-30T05:53:10.556Z,46.09
2022-07-30T05:54:10.545Z,48.20
2022-07-30T05:55:10.528Z,48.20
2022-07-30T05:56:10.519Z,41.29
2022-07-30T05:57:10.505Z,39.79
2022-07-30T05:58:10.493Z,46.09
2022-07-30T05:59:10.480Z,44.50
2022-07-30T06:00:10.596Z,40.70
2022-07-30T06:01:10.512Z,38.70
2022-07-30T06:02:10.442Z,41.40
2022-07-30T06:03:10.428Z,41.79
2022-07-30T06:04:10.493Z,43.50
2022-07-30T06:05:10.409Z,41.70
2022-07-30T06:06:10.391Z,41.29
2022-07-30T06:07:10.379Z,41.00
2022-07-30T06:08:10.365Z,39.20
2022-07-30T06:09:10.349Z,49.50
2022-07-30T06:10:10.338Z,43.79
2022-07-30T06:11:10.323Z,47.70
2022-07-30T06:12:10.313Z,47.00
2022-07-30T06:13:10.299Z,49.09
2022-07-30T06:14:10.288Z,59.20
2022-07-30T06:15:10.271Z,57.50
2022-07-30T06:16:10.311Z,61.79
2022-07-30T06:17:10.247Z,55.70
2022-07-30T06:18:10.236Z,54.50
2022-07-30T06:19:10.220Z,59.59
2022-07-30T06:20:10.210Z,56.29
2022-07-30T06:21:10.195Z,55.09
2022-07-30T06:22:10.185Z,49.40
2022-07-30T06:23:10.188Z,54.90
2022-07-30T06:24:10.162Z,58.50
2022-07-30T06:25:10.144Z,52.20
2022-07-30T06:26:10.132Z,61.29
2022-07-30T06:27:10.118Z,65.40
2022-07-30T06:28:27.808Z,62.90
2022-07-30T06:29:10.093Z,66.59
2022-07-30T06:30:10.086Z,65.19
2022-07-30T06:31:10.183Z,65.50
2022-07-30T06:32:10.056Z,69.40
2022-07-30T06:33:10.041Z,68.69
2022-07-30T06:34:10.030Z,70.19
2022-07-30T06:35:10.019Z,70.69
2022-07-30T06:36:14.073Z,70.69
2022-07-30T06:37:09.992Z,65.80
2022-07-30T06:38:09.978Z,70.90
2022-07-30T06:39:09.965Z,68.90
2022-07-30T06:40:09.955Z,72.40
2022-07-30T06:41:09.939Z,70.09
2022-07-30T06:42:09.928Z,69.09
2022-07-30T06:43:09.912Z,68.50
2022-07-30T06:44:09.901Z,71.90
2022-07-30T06:45:09.888Z,80.90
2022-07-30T06:46:09.938Z,78.40
2022-07-30T06:47:10.246Z,78.40
2022-07-30T06:48:09.850Z,90.30
2022-07-30T06:49:09.900Z,82.19
2022-07-30T06:50:09.825Z,93.90
2022-07-30T06:51:09.811Z,73.59
2022-07-30T06:52:09.799Z,85.19
2022-07-30T06:53:09.786Z,74.59
2022-07-30T06:54:09.775Z,90.00
2022-07-30T06:55:09.760Z,71.90
2022-07-30T06:56:09.747Z,79.19
2022-07-30T06:57:09.733Z,85.00
2022-07-30T06:58:09.723Z,85.19
2022-07-30T06:59:09.708Z,77.19
2022-07-30T07:00:09.698Z,87.59
2022-07-30T07:01:10.890Z,89.90
2022-07-30T07:02:09.675Z,85.80
2022-07-30T07:03:11.833Z,85.19
2022-07-30T07:04:09.686Z,82.80
2022-07-30T07:05:09.635Z,90.59
2022-07-30T07:06:09.623Z,85.09
2022-07-30T07:07:12.330Z,85.90
2022-07-30T07:08:09.598Z,86.00
2022-07-30T07:09:09.586Z,90.80
2022-07-30T07:10:09.571Z,96.50
2022-07-30T07:11:09.563Z,96.80
2022-07-30T07:12:09.547Z,98.19
2022-07-30T07:13:09.532Z,98.40
2022-07-30T07:14:09.521Z,104.19
2022-07-30T07:15:09.506Z,103.69
2022-07-30T07:16:09.495Z,104.30
2022-07-30T07:17:09.514Z,103.00
2022-07-30T07:18:09.473Z,95.50
2022-07-30T07:19:09.456Z,93.69
2022-07-30T07:20:09.445Z,93.19
2022-07-30T07:21:09.432Z,91.40
2022-07-30T07:22:09.423Z,93.19
2022-07-30T07:23:12.010Z,95.59
2022-07-30T07:24:09.394Z,92.09
2022-07-30T07:25:09.381Z,91.50
2022-07-30T07:26:09.373Z,89.69
2022-07-30T07:27:11.562Z,86.30
2022-07-30T07:28:13.416Z,83.19
2022-07-30T07:29:09.335Z,82.59
2022-07-30T07:30:09.325Z,79.90
2022-07-30T07:31:09.363Z,82.00
2022-07-30T07:32:09.342Z,79.30
2022-07-30T07:33:09.296Z,80.80
2022-07-30T07:34:09.273Z,80.50
2022-07-30T07:35:09.259Z,79.50
2022-07-30T07:36:09.247Z,91.09
2022-07-30T07:37:09.235Z,78.50
2022-07-30T07:38:09.224Z,79.00
2022-07-30T07:39:09.215Z,78.30
2022-07-30T07:40:09.200Z,78.30
2022-07-30T07:41:09.186Z,78.50
2022-07-30T07:42:09.171Z,80.30
2022-07-30T07:43:09.161Z,80.59
2022-07-30T07:44:09.146Z,79.59
2022-07-30T07:45:09.137Z,80.19
2022-07-30T07:46:09.156Z,79.19
2022-07-30T07:47:09.115Z,76.80
2022-07-30T07:48:09.099Z,77.59
2022-07-30T07:49:09.138Z,78.30
2022-07-30T07:50:09.074Z,75.00
2022-07-30T07:51:09.662Z,75.00
2022-07-30T07:52:09.053Z,73.69
2022-07-30T07:53:09.044Z,75.30
2022-07-30T07:54:21.110Z,73.80
2022-07-30T07:55:09.018Z,75.30
2022-07-30T07:56:09.003Z,70.69
2022-07-30T07:57:10.489Z,70.40
2022-07-30T07:58:08.982Z,67.59
2022-07-30T07:59:08.967Z,67.50
2022-07-30T08:00:08.954Z,64.50
2022-07-30T08:01:08.982Z,68.69
2022-07-30T08:02:09.027Z,63.40
2022-07-30T08:03:08.921Z,65.50
2022-07-30T08:04:10.271Z,64.40
2022-07-30T08:05:08.897Z,61.50
2022-07-30T08:06:12.045Z,61.59
2022-07-30T08:07:08.871Z,61.20
2022-07-30T08:08:08.855Z,61.00
2022-07-30T08:09:08.845Z,60.50
2022-07-30T08:10:08.832Z,62.59
2022-07-30T08:11:08.825Z,62.00
2022-07-30T08:12:08.806Z,61.40
2022-07-30T08:13:50.307Z,61.59
2022-07-30T08:14:08.782Z,62.40
2022-07-30T08:15:08.770Z,59.20
2022-07-30T08:16:12.080Z,59.09
2022-07-30T08:17:09.386Z,57.59
2022-07-30T08:18:08.734Z,55.50
2022-07-30T08:19:08.724Z,55.00
2022-07-30T08:20:08.709Z,54.09
2022-07-30T08:21:08.699Z,53.59
2022-07-30T08:22:08.684Z,52.59
2022-07-30T08:23:08.679Z,52.20
2022-07-30T08:24:08.661Z,52.29
2022-07-30T08:25:08.649Z,51.29
2022-07-30T08:26:08.637Z,48.90
2022-07-30T08:27:08.626Z,47.59
2022-07-30T08:28:08.612Z,46.59
2022-07-30T08:29:08.602Z,46.90
2022-07-30T08:30:08.587Z,46.79
2022-07-30T08:31:08.577Z,46.29
2022-07-30T08:32:08.563Z,46.20
2022-07-30T08:33:08.558Z,45.50
2022-07-30T08:34:08.539Z,44.40
2022-07-30T08:35:08.529Z,44.29
2022-07-30T08:36:09.504Z,40.90
2022-07-30T08:37:08.503Z,42.29
2022-07-30T08:38:08.490Z,41.40
2022-07-30T08:39:08.479Z,39.90
2022-07-30T08:40:08.467Z,38.79
2022-07-30T08:41:08.461Z,40.40
2022-07-30T08:42:08.443Z,39.29
2022-07-30T08:43:08.432Z,39.29
2022-07-30T08:44:12.598Z,38.70
2022-07-30T08:45:08.409Z,36.59
2022-07-30T08:46:08.394Z,34.59
2022-07-30T08:47:08.384Z,35.29
2022-07-30T08:48:08.369Z,33.40
2022-07-30T08:49:11.215Z,37.09
2022-07-30T08:50:08.348Z,38.09
2022-07-30T08:51:08.337Z,33.70
2022-07-30T08:52:08.322Z,31.50
2022-07-30T08:53:08.314Z,30.70
2022-07-30T08:54:08.298Z,29.50
2022-07-30T08:55:08.291Z,30.79
2022-07-30T08:56:08.276Z,31.39
2022-07-30T08:57:08.264Z,33.00
2022-07-30T08:58:08.250Z,32.79
2022-07-30T08:59:08.242Z,30.79
2022-07-30T09:00:08.226Z,30.39
2022-07-30T09:01:08.225Z,30.79
2022-07-30T09:02:12.432Z,30.89
2022-07-30T09:03:08.191Z,30.39
2022-07-30T09:04:08.183Z,29.89
2022-07-30T09:05:08.168Z,30.79
2022-07-30T09:06:08.154Z,30.29
2022-07-30T09:07:08.173Z,29.60
2022-07-30T09:08:09.051Z,31.00
2022-07-30T09:09:08.122Z,29.60
2022-07-30T09:10:08.106Z,28.89
2022-07-30T09:11:08.095Z,28.29
2022-07-30T09:12:08.082Z,29.00
2022-07-30T09:13:08.072Z,27.50
2022-07-30T09:14:08.626Z,26.20
2022-07-30T09:15:08.052Z,27.89
2022-07-30T09:16:08.116Z,28.39
2022-07-30T09:17:08.025Z,27.79
2022-07-30T09:18:08.012Z,28.10
2022-07-30T09:19:08.003Z,27.89
2022-07-30T09:20:07.987Z,27.10
2022-07-30T09:21:07.980Z,26.89
2022-07-30T09:22:07.965Z,26.70
2022-07-30T09:23:07.955Z,27.70
2022-07-30T09:24:07.944Z,27.29
2022-07-30T09:25:07.931Z,28.20
2022-07-30T09:26:07.918Z,27.50
2022-07-30T09:27:07.908Z,27.39
2022-07-30T09:28:15.687Z,25.60
2022-07-30T09:29:07.887Z,25.39
2022-07-30T09:30:07.871Z,23.79
2022-07-30T09:31:07.861Z,24.29
2022-07-30T09:32:07.851Z,25.60
2022-07-30T09:34:07.823Z,25.20
2022-07-30T09:35:07.813Z,25.89
2022-07-30T09:36:07.804Z,25.29
2022-07-30T09:37:07.789Z,25.39
2022-07-30T09:38:07.777Z,25.60
2022-07-30T09:39:07.768Z,25.70
2022-07-30T09:40:07.757Z,26.39
2022-07-30T09:41:17.199Z,24.60
2022-07-30T09:42:07.732Z,25.20
2022-07-30T09:43:07.724Z,24.60
2022-07-30T09:44:07.731Z,22.89
2022-07-30T09:45:07.696Z,22.89
2022-07-30T09:46:07.684Z,25.10
2022-07-30T09:47:07.674Z,24.70
2022-07-30T09:48:07.659Z,24.50
2022-07-30T09:49:07.724Z,23.70
2022-07-30T09:50:07.931Z,22.79
2022-07-30T09:51:07.631Z,22.10
2022-07-30T09:52:07.805Z,22.39
2022-07-30T09:53:07.611Z,24.39
2022-07-30T09:54:07.592Z,26.50
2022-07-30T09:55:07.582Z,25.20
2022-07-30T09:56:07.568Z,25.50
2022-07-30T09:57:23.171Z,23.20
2022-07-30T09:58:07.547Z,23.29
2022-07-30T09:59:07.536Z,23.39
2022-07-30T10:00:07.524Z,26.29
2022-07-30T10:01:07.518Z,25.29
2022-07-30T10:02:10.229Z,26.10
2022-07-30T10:03:12.699Z,25.29
2022-07-30T10:04:09.479Z,26.29
2022-07-30T10:05:07.467Z,26.50
2022-07-30T10:06:07.455Z,26.10
2022-07-30T10:07:07.446Z,24.89
2022-07-30T10:08:16.360Z,25.70
2022-07-30T10:09:14.194Z,24.79
2022-07-30T10:10:09.409Z,24.70
2022-07-30T10:11:08.686Z,24.89
2022-07-30T10:12:10.542Z,22.29
2022-07-30T10:13:07.378Z,19.50
2022-07-30T10:14:07.365Z,17.79
2022-07-30T10:15:07.384Z,17.60
2022-07-30T10:16:07.342Z,17.50
2022-07-30T10:17:07.333Z,18.50
2022-07-30T10:18:07.319Z,20.20
2022-07-30T10:19:07.309Z,20.89
2022-07-30T10:20:08.149Z,19.79
2022-07-30T10:21:07.285Z,24.00
2022-07-30T10:22:07.273Z,24.39
2022-07-30T10:23:07.629Z,23.39
2022-07-30T10:24:07.252Z,19.10
2022-07-30T10:25:07.239Z,15.19
2022-07-30T10:26:07.955Z,19.60
2022-07-30T10:27:07.624Z,15.00
2022-07-30T10:28:07.204Z,16.00
2022-07-30T10:29:07.195Z,22.79
2022-07-30T10:30:07.184Z,24.20
2022-07-30T10:31:46.960Z,24.70
2022-07-30T10:32:07.179Z,22.70
2022-07-30T10:33:07.152Z,15.80
2022-07-30T10:34:07.139Z,21.39
2022-07-30T10:35:07.131Z,23.50
2022-07-30T10:36:09.034Z,22.79
2022-07-30T10:37:07.261Z,26.10
2022-07-30T10:38:07.092Z,19.79
2022-07-30T10:39:07.081Z,23.89
2022-07-30T10:40:07.067Z,20.00
2022-07-30T10:41:07.058Z,19.10
2022-07-30T10:42:07.045Z,22.60
2022-07-30T10:43:07.035Z,21.20
2022-07-30T10:44:07.023Z,19.89
2022-07-30T10:45:07.013Z,19.00
2022-07-30T10:46:07.466Z,22.60
2022-07-30T10:47:09.235Z,22.00
2022-07-30T10:48:06.978Z,21.29
2022-07-30T10:49:07.025Z,20.39
2022-07-30T10:50:06.959Z,21.29
2022-07-30T10:51:06.945Z,21.00
2022-07-30T10:52:06.932Z,22.00
2022-07-30T10:53:06.921Z,21.70
2022-07-30T10:54:06.906Z,22.29
2022-07-30T10:55:06.896Z,21.00
2022-07-30T10:56:06.882Z,23.00
2022-07-30T10:57:06.873Z,21.70
2022-07-30T10:58:06.859Z,24.79
2022-07-30T10:59:07.956Z,22.50
2022-07-30T11:00:06.837Z,22.70
2022-07-30T11:01:17.920Z,23.00
2022-07-30T11:02:07.249Z,15.69
2022-07-30T11:03:14.127Z,15.80
2022-07-30T11:04:06.823Z,21.60
2022-07-30T11:05:06.782Z,23.29
2022-07-30T11:06:06.768Z,23.70
2022-07-30T11:07:06.759Z,23.39
2022-07-30T11:08:06.745Z,22.70
2022-07-30T11:09:06.739Z,22.89
2022-07-30T11:10:09.697Z,23.39
2022-07-30T11:11:19.253Z,23.00
2022-07-30T11:12:08.702Z,14.60
2022-07-30T11:13:06.695Z,16.00
2022-07-30T11:14:06.677Z,15.19
2022-07-30T11:15:18.505Z,19.39
2022-07-30T11:16:07.449Z,18.70
2022-07-30T11:17:06.644Z,16.00
2022-07-30T11:18:12.239Z,18.00
2022-07-30T11:19:56.290Z,21.60
2022-07-30T11:20:07.631Z,22.10
2022-07-30T11:21:06.599Z,22.00
2022-07-30T11:22:06.586Z,21.10
2022-07-30T11:23:06.578Z,20.20
2022-07-30T11:24:06.563Z,20.70
2022-07-30T11:25:13.136Z,20.00
2022-07-30T11:26:06.544Z,20.39
2022-07-30T11:27:06.531Z,20.89
2022-07-30T11:28:06.520Z,19.89
2022-07-30T11:29:06.507Z,20.10
2022-07-30T11:30:06.492Z,20.10
2022-07-30T11:31:10.391Z,21.29
2022-07-30T11:32:07.028Z,19.60
2022-07-30T11:33:06.461Z,20.20
2022-07-30T11:34:06.445Z,19.89
2022-07-30T11:35:06.434Z,20.20
2022-07-30T11:36:06.420Z,19.50
2022-07-30T11:37:19.075Z,20.10
2022-07-30T11:38:06.398Z,17.60
2022-07-30T11:39:07.511Z,19.10
2022-07-30T11:40:06.375Z,13.30
2022-07-30T11:41:06.365Z,12.89
2022-07-30T11:42:06.349Z,13.30
2022-07-30T11:43:06.340Z,16.00
2022-07-30T11:44:06.328Z,14.80
2022-07-30T11:45:06.319Z,18.29
2022-07-30T11:46:06.304Z,19.20
2022-07-30T11:47:06.296Z,19.29
2022-07-30T11:48:06.281Z,13.19
2022-07-30T11:49:06.335Z,16.79
2022-07-30T11:50:06.258Z,16.89
2022-07-30T11:51:06.247Z,14.80
2022-07-30T11:52:06.235Z,14.60
2022-07-30T11:53:06.223Z,13.60
2022-07-30T11:54:06.210Z,16.29
2022-07-30T11:55:06.199Z,18.60
2022-07-30T11:56:06.186Z,18.20
2022-07-30T11:57:06.173Z,17.20
2022-07-30T11:58:06.164Z,20.10
2022-07-30T11:59:06.150Z,19.89
2022-07-30T12:00:06.139Z,19.89
2022-07-30T12:01:09.107Z,21.29
2022-07-30T12:02:06.293Z,18.10
2022-07-30T12:03:06.103Z,21.10
2022-07-30T12:04:06.093Z,18.89
2022-07-30T12:05:06.077Z,15.10
2022-07-30T12:06:06.066Z,17.00
2022-07-30T12:07:06.054Z,20.29
2022-07-30T12:08:06.045Z,19.39
2022-07-30T12:09:06.039Z,19.79
2022-07-30T12:10:06.021Z,20.00
2022-07-30T12:11:06.006Z,19.79
2022-07-30T12:12:05.997Z,19.89
2022-07-30T12:13:05.982Z,19.50
2022-07-30T12:14:05.972Z,19.20
2022-07-30T12:15:05.957Z,18.70
2022-07-30T12:16:05.947Z,18.60
2022-07-30T12:17:06.028Z,18.39
2022-07-30T12:18:25.270Z,18.39
2022-07-30T12:19:05.911Z,17.89
2022-07-30T12:20:05.913Z,17.79
2022-07-30T12:21:05.887Z,18.00
2022-07-30T12:22:05.876Z,19.00
2022-07-30T12:23:05.863Z,12.80
2022-07-30T12:24:05.860Z,12.80
2022-07-30T12:25:05.840Z,12.19
2022-07-30T12:26:05.829Z,11.69
2022-07-30T12:27:06.371Z,11.80
2022-07-30T12:28:05.806Z,12.60
2022-07-30T12:29:05.791Z,12.10
2022-07-30T12:30:05.781Z,15.39
2022-07-30T12:31:05.768Z,16.70
2022-07-30T12:32:05.756Z,18.29
2022-07-30T12:33:05.745Z,17.70
2022-07-30T12:34:05.734Z,18.10
2022-07-30T12:35:05.720Z,18.10
2022-07-30T12:36:05.710Z,18.10
2022-07-30T12:37:05.695Z,17.60
2022-07-30T12:38:05.684Z,17.20
2022-07-30T12:39:05.672Z,17.79
2022-07-30T12:40:05.664Z,17.20
2022-07-30T12:41:05.648Z,16.70
2022-07-30T12:42:05.638Z,15.60
2022-07-30T12:43:05.624Z,15.69
2022-07-30T12:44:05.614Z,16.60
2022-07-30T12:45:05.600Z,16.60
2022-07-30T12:46:05.589Z,17.50
2022-07-30T12:47:06.190Z,16.10
2022-07-30T12:48:05.566Z,17.29
2022-07-30T12:49:19.107Z,16.50
2022-07-30T12:50:07.605Z,17.29
2022-07-30T12:51:05.527Z,16.89
2022-07-30T12:52:05.516Z,17.70
2022-07-30T12:53:05.504Z,17.79
2022-07-30T12:54:05.496Z,17.89
2022-07-30T12:55:05.482Z,17.89
2022-07-30T12:56:05.471Z,17.79
2022-07-30T12:57:05.928Z,17.29
2022-07-30T12:58:08.473Z,16.70
2022-07-30T12:59:05.432Z,15.30